sensor_id;sensor_type;location;lat;lon;timestamp;pressure;altitude;pressure_sealevel;temperature;humidity
57442;BME280;43284;47.042;15.498;2023-08-30T00:02:23;96110.59;;;13.67;100.00
57442;BME280;43284;47.042;15.498;2023-08-30T00:04:49;96107.47;;;13.85;100.00
57442;BME280;43284;47.042;15.498;2023-08-30T00:07:14;96098.72;;;14.07;100.00
57442;BME280;43284;47.042;15.498;2023-08-30T00:09:40;96094.22;;;13.97;100.00
57442;BME280;43284;47.042;15.498;2023-08-30T00:12:06;96100.06;;;13.90;100.00
57442;BME280;43284;47.042;15.498;2023-08-30T00:14:31;96094.09;;;13.88;100.00
57442;BME280;43284;47.042;15.498;2023-08-30T00:16:57;96100.16;;;13.88;100.00
57442;BME280;43284;47.042;15.498;2023-08-30T00:19:23;96113.66;;;13.84;100.00
57442;BME280;43284;47.042;15.498;2023-08-30T00:21:48;96112.13;;;13.81;100.00
57442;BME280;43284;47.042;15.498;2023-08-30T00:24:14;96115.00;;;13.89;100.00
57442;BME280;43284;47.042;15.498;2023-08-30T00:26:39;96116.88;;;13.98;100.00
57442;BME280;43284;47.042;15.498;2023-08-30T00:29:05;96123.69;;;13.90;100.00
57442;BME280;43284;47.042;15.498;2023-08-30T00:31:31;96123.00;;;13.76;100.00
57442;BME280;43284;47.042;15.498;2023-08-30T00:33:56;96118.34;;;13.80;100.00
57442;BME280;43284;47.042;15.498;2023-08-30T00:36:22;96124.31;;;13.93;100.00
57442;BME280;43284;47.042;15.498;2023-08-30T00:38:47;96125.97;;;13.94;100.00
57442;BME280;43284;47.042;15.498;2023-08-30T00:41:13;96129.66;;;13.92;100.00
57442;BME280;43284;47.042;15.498;2023-08-30T00:43:39;96136.22;;;13.86;100.00
57442;BME280;43284;47.042;15.498;2023-08-30T00:46:04;96139.38;;;13.80;100.00
57442;BME280;43284;47.042;15.498;2023-08-30T00:48:30;96142.09;;;13.78;100.00
57442;BME280;43284;47.042;15.498;2023-08-30T00:50:55;96140.06;;;13.82;100.00
57442;BME280;43284;47.042;15.498;2023-08-30T00:53:21;96144.97;;;13.75;100.00
57442;BME280;43284;47.042;15.498;2023-08-30T00:55:47;96147.47;;;13.77;100.00
57442;BME280;43284;47.042;15.498;2023-08-30T00:58:12;96146.63;;;13.76;100.00
57442;BME280;43284;47.042;15.498;2023-08-30T01:00:39;96150.59;;;13.82;100.00
57442;BME280;43284;47.042;15.498;2023-08-30T01:03:06;96152.25;;;13.83;100.00
57442;BME280;43284;47.042;15.498;2023-08-30T01:05:32;96156.19;;;13.77;100.00
57442;BME280;43284;47.042;15.498;2023-08-30T01:07:58;96155.94;;;13.80;100.00
57442;BME280;43284;47.042;15.498;2023-08-30T01:10:31;96156.41;;;13.86;100.00
57442;BME280;43284;47.042;15.498;2023-08-30T01:13:06;96160.00;;;13.85;100.00
57442;BME280;43284;47.042;15.498;2023-08-30T01:15:34;96159.28;;;13.83;100.00
57442;BME280;43284;47.042;15.498;2023-08-30T01:18:02;96159.03;;;13.86;100.00
57442;BME280;43284;47.042;15.498;2023-08-30T01:20:34;96151.78;;;13.89;100.00
57442;BME280;43284;47.042;15.498;2023-08-30T01:28:13;96149.38;;;13.97;100.00
57442;BME280;43284;47.042;15.498;2023-08-30T01:30:42;96158.94;;;13.98;100.00
57442;BME280;43284;47.042;15.498;2023-08-30T01:33:10;96156.53;;;14.07;100.00
57442;BME280;43284;47.042;15.498;2023-08-30T01:35:36;96153.56;;;14.00;100.00
57442;BME280;43284;47.042;15.498;2023-08-30T01:38:03;96154.03;;;13.94;100.00
57442;BME280;43284;47.042;15.498;2023-08-30T01:40:33;96153.06;;;13.84;100.00
57442;BME280;43284;47.042;15.498;2023-08-30T01:43:01;96143.28;;;13.74;100.00
57442;BME280;43284;47.042;15.498;2023-08-30T01:45:31;96144.47;;;13.70;100.00
57442;BME280;43284;47.042;15.498;2023-08-30T01:47:57;96142.00;;;13.69;100.00
57442;BME280;43284;47.042;15.498;2023-08-30T01:50:23;96138.66;;;13.67;100.00
57442;BME280;43284;47.042;15.498;2023-08-30T01:52:50;96148.19;;;13.68;100.00
57442;BME280;43284;47.042;15.498;2023-08-30T01:55:18;96146.63;;;13.65;100.00
57442;BME280;43284;47.042;15.498;2023-08-30T01:57:45;96146.84;;;13.62;100.00
57442;BME280;43284;47.042;15.498;2023-08-30T02:00:12;96141.13;;;13.57;100.00
57442;BME280;43284;47.042;15.498;2023-08-30T02:02:37;96142.22;;;13.54;100.00
57442;BME280;43284;47.042;15.498;2023-08-30T02:05:03;96136.84;;;13.56;100.00
57442;BME280;43284;47.042;15.498;2023-08-30T02:10:41;96129.78;;;13.45;100.00
57442;BME280;43284;47.042;15.498;2023-08-30T02:13:07;96135.16;;;13.44;100.00
57442;BME280;43284;47.042;15.498;2023-08-30T02:15:36;96128.09;;;13.44;100.00
57442;BME280;43284;47.042;15.498;2023-08-30T02:18:04;96140.75;;;13.50;100.00
57442;BME280;43284;47.042;15.498;2023-08-30T02:20:31;96133.72;;;13.51;100.00
57442;BME280;43284;47.042;15.498;2023-08-30T02:23:00;96137.56;;;13.58;100.00
57442;BME280;43284;47.042;15.498;2023-08-30T02:25:25;96138.03;;;13.63;100.00
57442;BME280;43284;47.042;15.498;2023-08-30T02:27:51;96134.81;;;13.59;100.00
57442;BME280;43284;47.042;15.498;2023-08-30T02:30:17;96135.03;;;13.56;100.00
57442;BME280;43284;47.042;15.498;2023-08-30T02:32:42;96140.53;;;13.53;100.00
57442;BME280;43284;47.042;15.498;2023-08-30T02:35:08;96132.78;;;13.52;100.00
57442;BME280;43284;47.042;15.498;2023-08-30T02:37:33;96130.63;;;13.46;100.00
57442;BME280;43284;47.042;15.498;2023-08-30T02:39:59;96129.91;;;13.44;100.00
57442;BME280;43284;47.042;15.498;2023-08-30T02:42:25;96135.25;;;13.53;100.00
57442;BME280;43284;47.042;15.498;2023-08-30T02:44:51;96142.56;;;13.61;100.00
57442;BME280;43284;47.042;15.498;2023-08-30T02:47:18;96140.91;;;13.71;100.00
57442;BME280;43284;47.042;15.498;2023-08-30T02:49:43;96137.09;;;13.87;100.00
57442;BME280;43284;47.042;15.498;2023-08-30T02:52:09;96140.31;;;13.68;100.00
57442;BME280;43284;47.042;15.498;2023-08-30T02:54:34;96132.69;;;13.65;100.00
57442;BME280;43284;47.042;15.498;2023-08-30T02:57:00;96138.41;;;13.58;100.00
57442;BME280;43284;47.042;15.498;2023-08-30T02:59:25;96132.53;;;13.55;100.00
57442;BME280;43284;47.042;15.498;2023-08-30T03:01:51;96136.13;;;13.54;100.00
57442;BME280;43284;47.042;15.498;2023-08-30T03:04:16;96138.97;;;13.51;100.00
57442;BME280;43284;47.042;15.498;2023-08-30T03:06:42;96145.41;;;13.47;100.00
57442;BME280;43284;47.042;15.498;2023-08-30T03:09:08;96140.88;;;13.49;100.00
57442;BME280;43284;47.042;15.498;2023-08-30T03:11:34;96138.38;;;13.47;100.00
57442;BME280;43284;47.042;15.498;2023-08-30T03:13:59;96145.19;;;13.50;100.00
57442;BME280;43284;47.042;15.498;2023-08-30T03:16:25;96150.53;;;13.48;100.00
57442;BME280;43284;47.042;15.498;2023-08-30T03:18:51;96149.72;;;13.48;100.00
57442;BME280;43284;47.042;15.498;2023-08-30T03:21:16;96143.63;;;13.47;100.00
57442;BME280;43284;47.042;15.498;2023-08-30T03:23:42;96133.50;;;13.43;100.00
57442;BME280;43284;47.042;15.498;2023-08-30T03:26:12;96134.31;;;13.43;100.00
57442;BME280;43284;47.042;15.498;2023-08-30T03:28:38;96140.41;;;13.44;100.00
57442;BME280;43284;47.042;15.498;2023-08-30T03:31:30;96139.94;;;13.50;100.00
57442;BME280;43284;47.042;15.498;2023-08-30T03:33:56;96134.69;;;13.50;100.00
57442;BME280;43284;47.042;15.498;2023-08-30T03:36:21;96135.03;;;13.45;100.00
57442;BME280;43284;47.042;15.498;2023-08-30T03:38:47;96126.34;;;13.45;100.00
57442;BME280;43284;47.042;15.498;2023-08-30T03:41:13;96124.66;;;13.44;100.00
57442;BME280;43284;47.042;15.498;2023-08-30T03:43:39;96114.97;;;13.44;100.00
57442;BME280;43284;47.042;15.498;2023-08-30T03:46:05;96122.84;;;13.44;100.00
57442;BME280;43284;47.042;15.498;2023-08-30T03:48:31;96122.13;;;13.42;100.00
57442;BME280;43284;47.042;15.498;2023-08-30T03:50:57;96125.72;;;13.41;100.00
57442;BME280;43284;47.042;15.498;2023-08-30T03:53:23;96123.09;;;13.41;100.00
57442;BME280;43284;47.042;15.498;2023-08-30T03:55:48;96121.66;;;13.48;100.00
57442;BME280;43284;47.042;15.498;2023-08-30T03:58:15;96129.53;;;13.59;100.00
57442;BME280;43284;47.042;15.498;2023-08-30T04:00:41;96122.88;;;13.67;100.00
57442;BME280;43284;47.042;15.498;2023-08-30T04:03:09;96125.00;;;13.62;100.00
57442;BME280;43284;47.042;15.498;2023-08-30T04:05:36;96131.47;;;13.57;100.00
57442;BME280;43284;47.042;15.498;2023-08-30T04:08:02;96127.16;;;13.56;100.00
57442;BME280;43284;47.042;15.498;2023-08-30T04:10:28;96131.94;;;13.51;100.00
57442;BME280;43284;47.042;15.498;2023-08-30T04:12:54;96125.00;;;13.50;100.00
57442;BME280;43284;47.042;15.498;2023-08-30T04:15:19;96128.97;;;13.45;100.00
57442;BME280;43284;47.042;15.498;2023-08-30T04:17:45;96118.69;;;13.42;100.00
57442;BME280;43284;47.042;15.498;2023-08-30T04:20:10;96112.81;;;13.38;100.00
57442;BME280;43284;47.042;15.498;2023-08-30T04:22:36;96123.22;;;13.39;100.00
57442;BME280;43284;47.042;15.498;2023-08-30T04:25:03;96117.38;;;13.36;100.00
57442;BME280;43284;47.042;15.498;2023-08-30T04:27:29;96122.63;;;13.36;100.00
57442;BME280;43284;47.042;15.498;2023-08-30T04:29:54;96122.63;;;13.36;100.00
57442;BME280;43284;47.042;15.498;2023-08-30T04:32:20;96120.22;;;13.44;100.00
57442;BME280;43284;47.042;15.498;2023-08-30T04:34:45;96118.69;;;13.53;100.00
57442;BME280;43284;47.042;15.498;2023-08-30T04:37:11;96119.19;;;13.58;100.00
57442;BME280;43284;47.042;15.498;2023-08-30T04:39:37;96123.09;;;13.52;100.00
57442;BME280;43284;47.042;15.498;2023-08-30T04:42:02;96120.13;;;13.46;100.00
57442;BME280;43284;47.042;15.498;2023-08-30T04:44:28;96120.59;;;13.51;100.00
57442;BME280;43284;47.042;15.498;2023-08-30T04:46:54;96123.22;;;13.62;100.00
57442;BME280;43284;47.042;15.498;2023-08-30T04:49:20;96119.19;;;13.69;100.00
57442;BME280;43284;47.042;15.498;2023-08-30T04:51:47;96124.06;;;13.63;100.00
57442;BME280;43284;47.042;15.498;2023-08-30T04:54:12;96121.09;;;13.56;100.00
57442;BME280;43284;47.042;15.498;2023-08-30T04:56:39;96119.88;;;13.49;100.00
57442;BME280;43284;47.042;15.498;2023-08-30T04:59:04;96121.91;;;13.45;100.00
57442;BME280;43284;47.042;15.498;2023-08-30T05:01:30;96120.22;;;13.44;100.00
57442;BME280;43284;47.042;15.498;2023-08-30T05:03:56;96126.69;;;13.51;100.00
57442;BME280;43284;47.042;15.498;2023-08-30T05:06:21;96125.25;;;13.58;100.00
57442;BME280;43284;47.042;15.498;2023-08-30T05:08:47;96131.59;;;13.56;100.00
57442;BME280;43284;47.042;15.498;2023-08-30T05:11:12;96130.88;;;13.65;100.00
57442;BME280;43284;47.042;15.498;2023-08-30T05:13:38;96137.69;;;13.68;100.00
57442;BME280;43284;47.042;15.498;2023-08-30T05:16:04;96136.25;;;13.75;100.00
57442;BME280;43284;47.042;15.498;2023-08-30T05:18:30;96139.22;;;13.81;100.00
57442;BME280;43284;47.042;15.498;2023-08-30T05:20:55;96140.53;;;13.87;100.00
57442;BME280;43284;47.042;15.498;2023-08-30T05:23:21;96142.81;;;13.92;100.00
57442;BME280;43284;47.042;15.498;2023-08-30T05:25:46;96151.41;;;13.94;100.00
57442;BME280;43284;47.042;15.498;2023-08-30T05:28:12;96150.59;;;13.93;100.00
57442;BME280;43284;47.042;15.498;2023-08-30T05:30:41;96148.41;;;13.98;100.00
57442;BME280;43284;47.042;15.498;2023-08-30T05:33:07;96150.91;;;14.11;100.00
57442;BME280;43284;47.042;15.498;2023-08-30T05:35:32;96149.00;;;14.13;100.00
57442;BME280;43284;47.042;15.498;2023-08-30T05:37:58;96151.03;;;14.10;100.00
57442;BME280;43284;47.042;15.498;2023-08-30T05:40:23;96150.19;;;14.20;100.00
57442;BME280;43284;47.042;15.498;2023-08-30T05:42:52;96152.81;;;14.20;100.00
57442;BME280;43284;47.042;15.498;2023-08-30T05:45:17;96147.66;;;14.19;100.00
57442;BME280;43284;47.042;15.498;2023-08-30T05:47:43;96155.31;;;14.22;100.00
57442;BME280;43284;47.042;15.498;2023-08-30T05:50:09;96155.78;;;14.27;100.00
57442;BME280;43284;47.042;15.498;2023-08-30T05:52:35;96153.50;;;14.34;100.00
57442;BME280;43284;47.042;15.498;2023-08-30T05:55:01;96161.38;;;14.34;100.00
57442;BME280;43284;47.042;15.498;2023-08-30T05:57:26;96166.16;;;14.40;100.00
57442;BME280;43284;47.042;15.498;2023-08-30T05:59:54;96167.72;;;14.42;100.00
57442;BME280;43284;47.042;15.498;2023-08-30T06:02:19;96167.09;;;14.50;100.00
57442;BME280;43284;47.042;15.498;2023-08-30T06:04:45;96166.84;;;14.53;100.00
57442;BME280;43284;47.042;15.498;2023-08-30T06:07:10;96176.91;;;14.59;100.00
57442;BME280;43284;47.042;15.498;2023-08-30T06:09:36;96172.47;;;14.60;100.00
57442;BME280;43284;47.042;15.498;2023-08-30T06:12:01;96176.44;;;14.54;100.00
57442;BME280;43284;47.042;15.498;2023-08-30T06:14:27;96178.81;;;14.57;100.00
57442;BME280;43284;47.042;15.498;2023-08-30T06:16:52;96188.72;;;14.54;100.00
57442;BME280;43284;47.042;15.498;2023-08-30T06:19:18;96177.75;;;14.60;100.00
57442;BME280;43284;47.042;15.498;2023-08-30T06:21:43;96180.25;;;14.61;100.00
57442;BME280;43284;47.042;15.498;2023-08-30T06:24:09;96184.44;;;14.64;100.00
57442;BME280;43284;47.042;15.498;2023-08-30T06:26:34;96180.34;;;14.71;100.00
57442;BME280;43284;47.042;15.498;2023-08-30T06:29:00;96186.09;;;14.76;100.00
57442;BME280;43284;47.042;15.498;2023-08-30T06:31:25;96190.38;;;14.77;100.00
57442;BME280;43284;47.042;15.498;2023-08-30T06:33:53;96193.47;;;14.82;100.00
57442;BME280;43284;47.042;15.498;2023-08-30T06:36:18;96186.66;;;14.80;100.00
57442;BME280;43284;47.042;15.498;2023-08-30T06:38:44;96195.25;;;14.82;100.00
57442;BME280;43284;47.042;15.498;2023-08-30T06:41:09;96183.69;;;14.73;100.00
57442;BME280;43284;47.042;15.498;2023-08-30T06:43:35;96189.28;;;14.80;100.00
57442;BME280;43284;47.042;15.498;2023-08-30T06:46:00;96202.44;;;14.80;100.00
57442;BME280;43284;47.042;15.498;2023-08-30T06:48:26;96203.47;;;14.89;100.00
57442;BME280;43284;47.042;15.498;2023-08-30T07:04:01;96212.97;;;15.12;100.00
57442;BME280;43284;47.042;15.498;2023-08-30T07:06:29;96205.72;;;15.25;100.00
57442;BME280;43284;47.042;15.498;2023-08-30T07:08:56;96211.16;;;15.24;100.00
57442;BME280;43284;47.042;15.498;2023-08-30T07:11:22;96218.66;;;15.29;100.00
57442;BME280;43284;47.042;15.498;2023-08-30T07:13:47;96222.72;;;15.33;100.00
57442;BME280;43284;47.042;15.498;2023-08-30T07:16:13;96226.88;;;15.35;100.00
57442;BME280;43284;47.042;15.498;2023-08-30T07:18:38;96228.16;;;15.41;100.00
57442;BME280;43284;47.042;15.498;2023-08-30T07:21:05;96224.19;;;15.47;100.00
57442;BME280;43284;47.042;15.498;2023-08-30T07:23:30;96231.72;;;15.51;100.00
57442;BME280;43284;47.042;15.498;2023-08-30T07:25:56;96232.03;;;15.58;100.00
57442;BME280;43284;47.042;15.498;2023-08-30T07:28:21;96234.28;;;15.62;100.00
57442;BME280;43284;47.042;15.498;2023-08-30T07:30:47;96240.13;;;15.66;100.00
57442;BME280;43284;47.042;15.498;2023-08-30T07:33:12;96234.59;;;15.69;100.00
57442;BME280;43284;47.042;15.498;2023-08-30T07:35:38;96235.91;;;15.75;100.00
57442;BME280;43284;47.042;15.498;2023-08-30T07:38:04;96243.16;;;15.82;100.00
57442;BME280;43284;47.042;15.498;2023-08-30T07:40:30;96245.41;;;15.87;100.00
57442;BME280;43284;47.042;15.498;2023-08-30T07:42:56;96249.91;;;15.96;100.00
57442;BME280;43284;47.042;15.498;2023-08-30T07:45:21;96246.75;;;16.02;100.00
57442;BME280;43284;47.042;15.498;2023-08-30T07:47:47;96254.13;;;16.09;100.00
57442;BME280;43284;47.042;15.498;2023-08-30T07:50:12;96258.31;;;16.11;100.00
57442;BME280;43284;47.042;15.498;2023-08-30T07:52:38;96259.72;;;16.15;100.00
57442;BME280;43284;47.042;15.498;2023-08-30T07:55:04;96258.50;;;16.19;100.00
57442;BME280;43284;47.042;15.498;2023-08-30T07:57:29;96260.03;;;16.22;100.00
57442;BME280;43284;47.042;15.498;2023-08-30T07:59:55;96270.56;;;16.22;100.00
57442;BME280;43284;47.042;15.498;2023-08-30T08:02:20;96263.94;;;16.27;100.00
57442;BME280;43284;47.042;15.498;2023-08-30T08:04:46;96267.81;;;16.23;100.00
57442;BME280;43284;47.042;15.498;2023-08-30T08:07:11;96269.94;;;16.30;100.00
57442;BME280;43284;47.042;15.498;2023-08-30T08:09:37;96271.88;;;16.37;100.00
57442;BME280;43284;47.042;15.498;2023-08-30T08:12:04;96271.13;;;16.46;100.00
57442;BME280;43284;47.042;15.498;2023-08-30T08:14:29;96272.66;;;16.49;100.00
57442;BME280;43284;47.042;15.498;2023-08-30T08:16:55;96279.47;;;16.52;100.00
57442;BME280;43284;47.042;15.498;2023-08-30T08:19:20;96273.34;;;16.51;100.00
57442;BME280;43284;47.042;15.498;2023-08-30T08:21:47;96275.72;;;16.54;100.00
57442;BME280;43284;47.042;15.498;2023-08-30T08:24:13;96280.72;;;16.57;100.00
57442;BME280;43284;47.042;15.498;2023-08-30T08:26:39;96288.50;;;16.59;100.00
57442;BME280;43284;47.042;15.498;2023-08-30T08:29:04;96285.47;;;16.63;100.00
57442;BME280;43284;47.042;15.498;2023-08-30T08:31:30;96282.97;;;16.62;100.00
57442;BME280;43284;47.042;15.498;2023-08-30T08:34:08;96284.75;;;16.61;100.00
57442;BME280;43284;47.042;15.498;2023-08-30T08:36:35;96286.75;;;16.69;100.00
57442;BME280;43284;47.042;15.498;2023-08-30T08:39:00;96285.34;;;16.75;100.00
57442;BME280;43284;47.042;15.498;2023-08-30T08:41:39;96287.16;;;16.74;100.00
57442;BME280;43284;47.042;15.498;2023-08-30T08:44:07;96288.16;;;16.73;100.00
57442;BME280;43284;47.042;15.498;2023-08-30T08:46:35;96286.16;;;16.65;100.00
57442;BME280;43284;47.042;15.498;2023-08-30T08:49:09;96280.47;;;16.60;100.00
57442;BME280;43284;47.042;15.498;2023-08-30T08:51:36;96283.22;;;16.59;100.00
57442;BME280;43284;47.042;15.498;2023-08-30T08:54:03;96280.47;;;16.60;100.00
57442;BME280;43284;47.042;15.498;2023-08-30T08:56:30;96280.06;;;16.65;100.00
57442;BME280;43284;47.042;15.498;2023-08-30T08:58:56;96280.16;;;16.54;100.00
57442;BME280;43284;47.042;15.498;2023-08-30T09:01:23;96281.72;;;16.66;100.00
57442;BME280;43284;47.042;15.498;2023-08-30T09:03:50;96280.34;;;16.72;100.00
57442;BME280;43284;47.042;15.498;2023-08-30T09:06:16;96287.75;;;16.78;100.00
57442;BME280;43284;47.042;15.498;2023-08-30T09:08:41;96283.19;;;16.80;100.00
57442;BME280;43284;47.042;15.498;2023-08-30T09:11:07;96284.31;;;16.87;100.00
57442;BME280;43284;47.042;15.498;2023-08-30T09:13:32;96283.78;;;16.93;100.00
57442;BME280;43284;47.042;15.498;2023-08-30T09:15:59;96286.00;;;16.98;100.00
57442;BME280;43284;47.042;15.498;2023-08-30T09:18:25;96282.25;;;17.00;100.00
57442;BME280;43284;47.042;15.498;2023-08-30T09:21:19;96276.56;;;17.05;100.00
57442;BME280;43284;47.042;15.498;2023-08-30T09:23:44;96275.63;;;17.06;100.00
57442;BME280;43284;47.042;15.498;2023-08-30T09:26:10;96274.94;;;17.23;100.00
57442;BME280;43284;47.042;15.498;2023-08-30T09:28:42;96276.75;;;17.33;100.00
57442;BME280;43284;47.042;15.498;2023-08-30T09:31:17;96272.88;;;17.37;100.00
57442;BME280;43284;47.042;15.498;2023-08-30T09:33:45;96273.56;;;17.48;100.00
57442;BME280;43284;47.042;15.498;2023-08-30T09:36:10;96275.63;;;17.55;100.00
57442;BME280;43284;47.042;15.498;2023-08-30T09:38:37;96273.81;;;17.55;97.48
57442;BME280;43284;47.042;15.498;2023-08-30T09:41:03;96275.63;;;17.55;93.62
57442;BME280;43284;47.042;15.498;2023-08-30T09:43:30;96274.97;;;17.62;95.21
57442;BME280;43284;47.042;15.498;2023-08-30T09:45:55;96262.16;;;17.67;96.12
57442;BME280;43284;47.042;15.498;2023-08-30T09:48:27;96263.94;;;17.77;97.46
57442;BME280;43284;47.042;15.498;2023-08-30T09:50:53;96270.34;;;17.84;95.26
57442;BME280;43284;47.042;15.498;2023-08-30T09:53:21;96266.03;;;17.92;97.21
57442;BME280;43284;47.042;15.498;2023-08-30T09:55:51;96261.16;;;17.98;94.22
57442;BME280;43284;47.042;15.498;2023-08-30T09:58:17;96258.66;;;17.96;89.53
57442;BME280;43284;47.042;15.498;2023-08-30T10:00:44;96258.22;;;18.01;89.73
57442;BME280;43284;47.042;15.498;2023-08-30T10:03:10;96255.44;;;18.02;89.51
57442;BME280;43284;47.042;15.498;2023-08-30T10:05:37;96253.06;;;18.09;87.88
57442;BME280;43284;47.042;15.498;2023-08-30T10:08:04;96247.72;;;18.19;90.01
57442;BME280;43284;47.042;15.498;2023-08-30T10:10:32;96251.75;;;18.23;86.80
57442;BME280;43284;47.042;15.498;2023-08-30T10:12:58;96248.53;;;18.29;87.39
57442;BME280;43284;47.042;15.498;2023-08-30T10:15:25;96247.25;;;18.33;83.75
57442;BME280;43284;47.042;15.498;2023-08-30T10:17:54;96243.88;;;18.41;86.09
57442;BME280;43284;47.042;15.498;2023-08-30T10:20:21;96238.13;;;18.45;84.62
57442;BME280;43284;47.042;15.498;2023-08-30T10:22:47;96243.28;;;18.57;88.17
57442;BME280;43284;47.042;15.498;2023-08-30T10:25:25;96242.66;;;18.63;92.02
57442;BME280;43284;47.042;15.498;2023-08-30T10:27:52;96237.03;;;18.48;86.59
57442;BME280;43284;47.042;15.498;2023-08-30T10:30:20;96236.28;;;18.56;85.60
57442;BME280;43284;47.042;15.498;2023-08-30T10:32:46;96235.56;;;18.63;85.42
57442;BME280;43284;47.042;15.498;2023-08-30T10:35:14;96235.72;;;18.62;83.09
57442;BME280;43284;47.042;15.498;2023-08-30T10:37:40;96232.06;;;18.63;83.97
57442;BME280;43284;47.042;15.498;2023-08-30T10:40:06;96229.69;;;18.69;84.45
57442;BME280;43284;47.042;15.498;2023-08-30T10:42:32;96226.00;;;18.52;81.20
57442;BME280;43284;47.042;15.498;2023-08-30T10:45:00;96234.56;;;18.64;84.55
57442;BME280;43284;47.042;15.498;2023-08-30T10:47:29;96235.81;;;18.70;81.65
57442;BME280;43284;47.042;15.498;2023-08-30T10:49:59;96237.19;;;18.74;83.18
57442;BME280;43284;47.042;15.498;2023-08-30T10:52:26;96243.16;;;18.76;79.56
57442;BME280;43284;47.042;15.498;2023-08-30T10:54:51;96250.00;;;18.79;82.57
57442;BME280;43284;47.042;15.498;2023-08-30T10:57:24;96241.31;;;18.86;81.34
57442;BME280;43284;47.042;15.498;2023-08-30T11:02:37;96245.28;;;19.00;81.71
57442;BME280;43284;47.042;15.498;2023-08-30T11:05:06;96242.41;;;19.11;81.62
57442;BME280;43284;47.042;15.498;2023-08-30T11:07:32;96243.94;;;19.14;81.33
57442;BME280;43284;47.042;15.498;2023-08-30T11:09:58;96242.66;;;19.18;81.01
57442;BME280;43284;47.042;15.498;2023-08-30T11:12:24;96241.06;;;19.25;80.49
57442;BME280;43284;47.042;15.498;2023-08-30T11:14:55;96246.81;;;19.39;82.53
57442;BME280;43284;47.042;15.498;2023-08-30T11:17:20;96240.31;;;19.33;76.95
57442;BME280;43284;47.042;15.498;2023-08-30T11:19:48;96232.94;;;19.45;79.24
57442;BME280;43284;47.042;15.498;2023-08-30T11:22:14;96234.78;;;19.44;73.49
57442;BME280;43284;47.042;15.498;2023-08-30T11:24:42;96235.47;;;19.46;76.20
57442;BME280;43284;47.042;15.498;2023-08-30T11:27:09;96232.03;;;19.54;77.26
57442;BME280;43284;47.042;15.498;2023-08-30T11:29:35;96236.94;;;19.67;77.82
57442;BME280;43284;47.042;15.498;2023-08-30T11:32:00;96239.00;;;19.73;78.25
57442;BME280;43284;47.042;15.498;2023-08-30T11:34:26;96235.13;;;19.67;70.92
57442;BME280;43284;47.042;15.498;2023-08-30T11:36:52;96238.00;;;19.74;74.91
57442;BME280;43284;47.042;15.498;2023-08-30T11:39:17;96241.72;;;19.81;76.59
57442;BME280;43284;47.042;15.498;2023-08-30T11:41:43;96232.78;;;19.82;78.58
57442;BME280;43284;47.042;15.498;2023-08-30T11:44:09;96229.44;;;19.80;74.59
57442;BME280;43284;47.042;15.498;2023-08-30T11:46:35;96231.34;;;19.88;76.73
57442;BME280;43284;47.042;15.498;2023-08-30T11:49:01;96236.31;;;19.91;75.12
57442;BME280;43284;47.042;15.498;2023-08-30T11:51:28;96227.53;;;19.90;76.22
57442;BME280;43284;47.042;15.498;2023-08-30T11:53:55;96227.22;;;19.93;76.13
57442;BME280;43284;47.042;15.498;2023-08-30T11:56:21;96231.75;;;20.01;76.13
57442;BME280;43284;47.042;15.498;2023-08-30T11:58:48;96229.59;;;20.05;72.84
57442;BME280;43284;47.042;15.498;2023-08-30T12:01:14;96228.69;;;20.14;73.52
57442;BME280;43284;47.042;15.498;2023-08-30T12:03:39;96226.84;;;20.14;73.32
57442;BME280;43284;47.042;15.498;2023-08-30T12:06:11;96218.47;;;20.27;76.13
57442;BME280;43284;47.042;15.498;2023-08-30T12:08:37;96223.66;;;20.37;79.46
57442;BME280;43284;47.042;15.498;2023-08-30T12:11:03;96222.00;;;20.36;77.04
57442;BME280;43284;47.042;15.498;2023-08-30T12:13:33;96217.19;;;20.40;79.54
57442;BME280;43284;47.042;15.498;2023-08-30T12:15:59;96219.34;;;20.44;82.54
57442;BME280;43284;47.042;15.498;2023-08-30T12:18:31;96214.25;;;20.51;83.55
57442;BME280;43284;47.042;15.498;2023-08-30T12:21:01;96212.44;;;20.51;82.15
57442;BME280;43284;47.042;15.498;2023-08-30T12:23:29;96213.59;;;20.49;80.75
57442;BME280;43284;47.042;15.498;2023-08-30T12:26:06;96218.44;;;20.53;85.06
57442;BME280;43284;47.042;15.498;2023-08-30T12:28:37;96211.97;;;20.56;83.17
57442;BME280;43284;47.042;15.498;2023-08-30T12:31:03;96210.13;;;20.56;83.34
57442;BME280;43284;47.042;15.498;2023-08-30T12:33:29;96202.16;;;20.56;84.15
57442;BME280;43284;47.042;15.498;2023-08-30T12:35:56;96208.34;;;20.57;83.41
57442;BME280;43284;47.042;15.498;2023-08-30T12:38:22;96204.97;;;20.55;79.48
57442;BME280;43284;47.042;15.498;2023-08-30T12:40:50;96210.84;;;20.58;79.56
57442;BME280;43284;47.042;15.498;2023-08-30T12:43:16;96210.47;;;20.53;79.02
57442;BME280;43284;47.042;15.498;2023-08-30T12:45:43;96205.25;;;20.44;79.34
57442;BME280;43284;47.042;15.498;2023-08-30T12:48:10;96207.56;;;20.38;82.06
57442;BME280;43284;47.042;15.498;2023-08-30T12:50:37;96210.50;;;20.27;86.65
57442;BME280;43284;47.042;15.498;2023-08-30T12:53:06;96206.78;;;20.12;84.83
57442;BME280;43284;47.042;15.498;2023-08-30T12:55:32;96208.56;;;20.03;84.28
57442;BME280;43284;47.042;15.498;2023-08-30T12:57:59;96207.13;;;19.91;85.69
57442;BME280;43284;47.042;15.498;2023-08-30T13:00:26;96202.31;;;19.68;82.46
57442;BME280;43284;47.042;15.498;2023-08-30T13:02:52;96199.97;;;19.65;87.53
57442;BME280;43284;47.042;15.498;2023-08-30T13:05:18;96203.41;;;19.58;89.13